sensor_id;sensor_type;location;lat;lon;timestamp;P1;durP1;ratioP1;P2;durP2;ratioP2
64375;SDS011;50700;55.416;12.952;2023-02-28T00:00:28;20.88;;;12.20;;
64375;SDS011;50700;55.416;12.952;2023-02-28T00:02:54;24.05;;;12.93;;
64375;SDS011;50700;55.416;12.952;2023-02-28T00:05:21;19.95;;;12.38;;
64375;SDS011;50700;55.416;12.952;2023-02-28T00:07:49;20.70;;;11.95;;
64375;SDS011;50700;55.416;12.952;2023-02-28T00:10:20;20.88;;;12.05;;
64375;SDS011;50700;55.416;12.952;2023-02-28T00:12:48;22.63;;;12.40;;
64375;SDS011;50700;55.416;12.952;2023-02-28T00:15:15;24.05;;;11.60;;
64375;SDS011;50700;55.416;12.952;2023-02-28T00:17:41;20.35;;;10.95;;
64375;SDS011;50700;55.416;12.952;2023-02-28T00:20:08;20.77;;;10.45;;
64375;SDS011;50700;55.416;12.952;2023-02-28T00:22:40;18.77;;;11.32;;
64375;SDS011;50700;55.416;12.952;2023-02-28T00:25:07;19.30;;;12.43;;
64375;SDS011;50700;55.416;12.952;2023-02-28T00:27:34;24.90;;;12.07;;
64375;SDS011;50700;55.416;12.952;2023-02-28T00:30:00;21.08;;;10.70;;
64375;SDS011;50700;55.416;12.952;2023-02-28T00:32:27;18.98;;;10.85;;
64375;SDS011;50700;55.416;12.952;2023-02-28T00:34:53;19.48;;;10.68;;
64375;SDS011;50700;55.416;12.952;2023-02-28T00:37:19;18.23;;;11.50;;
64375;SDS011;50700;55.416;12.952;2023-02-28T00:39:45;19.60;;;10.60;;
64375;SDS011;50700;55.416;12.952;2023-02-28T00:42:11;19.30;;;11.00;;
64375;SDS011;50700;55.416;12.952;2023-02-28T00:44:37;19.00;;;10.30;;
64375;SDS011;50700;55.416;12.952;2023-02-28T00:47:04;19.88;;;10.18;;
64375;SDS011;50700;55.416;12.952;2023-02-28T00:49:30;22.02;;;11.10;;
64375;SDS011;50700;55.416;12.952;2023-02-28T00:51:57;18.63;;;10.35;;
64375;SDS011;50700;55.416;12.952;2023-02-28T00:54:23;19.80;;;10.95;;
64375;SDS011;50700;55.416;12.952;2023-02-28T00:56:50;16.40;;;10.45;;
64375;SDS011;50700;55.416;12.952;2023-02-28T00:59:16;20.08;;;11.57;;
64375;SDS011;50700;55.416;12.952;2023-02-28T01:01:43;21.40;;;12.15;;
64375;SDS011;50700;55.416;12.952;2023-02-28T01:04:09;22.75;;;12.75;;
64375;SDS011;50700;55.416;12.952;2023-02-28T01:06:36;23.23;;;12.85;;
64375;SDS011;50700;55.416;12.952;2023-02-28T01:09:03;25.45;;;13.93;;
64375;SDS011;50700;55.416;12.952;2023-02-28T01:11:30;27.13;;;14.18;;
64375;SDS011;50700;55.416;12.952;2023-02-28T01:13:56;22.77;;;13.73;;
64375;SDS011;50700;55.416;12.952;2023-02-28T01:16:22;26.90;;;14.55;;
64375;SDS011;50700;55.416;12.952;2023-02-28T01:18:49;26.70;;;15.55;;
64375;SDS011;50700;55.416;12.952;2023-02-28T01:21:16;25.75;;;13.43;;
64375;SDS011;50700;55.416;12.952;2023-02-28T01:23:43;25.75;;;13.75;;
64375;SDS011;50700;55.416;12.952;2023-02-28T01:26:10;25.92;;;12.82;;
64375;SDS011;50700;55.416;12.952;2023-02-28T01:28:37;22.35;;;12.52;;
64375;SDS011;50700;55.416;12.952;2023-02-28T01:31:03;23.05;;;13.10;;
64375;SDS011;50700;55.416;12.952;2023-02-28T01:33:30;24.08;;;12.45;;
64375;SDS011;50700;55.416;12.952;2023-02-28T01:36:00;24.73;;;12.70;;
64375;SDS011;50700;55.416;12.952;2023-02-28T01:38:26;27.65;;;11.95;;
64375;SDS011;50700;55.416;12.952;2023-02-28T01:40:52;21.55;;;10.55;;
64375;SDS011;50700;55.416;12.952;2023-02-28T01:45:48;24.63;;;11.13;;
64375;SDS011;50700;55.416;12.952;2023-02-28T01:48:14;22.30;;;11.27;;
64375;SDS011;50700;55.416;12.952;2023-02-28T01:50:41;19.80;;;10.73;;
64375;SDS011;50700;55.416;12.952;2023-02-28T01:53:10;25.77;;;11.77;;
64375;SDS011;50700;55.416;12.952;2023-02-28T01:55:37;20.10;;;10.95;;
64375;SDS011;50700;55.416;12.952;2023-02-28T01:58:04;19.73;;;11.88;;
64375;SDS011;50700;55.416;12.952;2023-02-28T02:00:32;20.27;;;10.52;;
64375;SDS011;50700;55.416;12.952;2023-02-28T02:02:59;20.75;;;10.52;;
64375;SDS011;50700;55.416;12.952;2023-02-28T02:05:27;20.30;;;11.15;;
64375;SDS011;50700;55.416;12.952;2023-02-28T02:07:56;24.20;;;11.93;;
64375;SDS011;50700;55.416;12.952;2023-02-28T02:29:10;60.15;;;12.63;;
64375;SDS011;50700;55.416;12.952;2023-02-28T02:31:48;46.38;;;12.85;;
64375;SDS011;50700;55.416;12.952;2023-02-28T02:34:26;44.95;;;12.77;;
64375;SDS011;50700;55.416;12.952;2023-02-28T02:37:02;31.20;;;12.38;;
64375;SDS011;50700;55.416;12.952;2023-02-28T02:39:38;53.58;;;13.43;;
64375;SDS011;50700;55.416;12.952;2023-02-28T02:42:20;45.67;;;12.80;;
64375;SDS011;50700;55.416;12.952;2023-02-28T02:44:53;27.58;;;11.52;;
64375;SDS011;50700;55.416;12.952;2023-02-28T02:47:22;33.63;;;12.88;;
64375;SDS011;50700;55.416;12.952;2023-02-28T02:49:51;41.25;;;11.73;;
64375;SDS011;50700;55.416;12.952;2023-02-28T02:52:18;26.85;;;12.10;;
64375;SDS011;50700;55.416;12.952;2023-02-28T02:54:46;42.70;;;12.07;;
64375;SDS011;50700;55.416;12.952;2023-02-28T02:57:17;30.70;;;12.70;;
64375;SDS011;50700;55.416;12.952;2023-02-28T02:59:46;30.88;;;12.50;;
64375;SDS011;50700;55.416;12.952;2023-02-28T03:02:14;47.30;;;12.98;;
64375;SDS011;50700;55.416;12.952;2023-02-28T03:04:43;39.28;;;12.95;;
64375;SDS011;50700;55.416;12.952;2023-02-28T03:07:11;54.78;;;13.13;;
64375;SDS011;50700;55.416;12.952;2023-02-28T03:09:38;28.85;;;12.25;;
64375;SDS011;50700;55.416;12.952;2023-02-28T03:12:04;48.00;;;11.75;;
64375;SDS011;50700;55.416;12.952;2023-02-28T03:14:45;32.90;;;12.75;;
64375;SDS011;50700;55.416;12.952;2023-02-28T03:17:24;37.28;;;11.52;;
64375;SDS011;50700;55.416;12.952;2023-02-28T03:24:53;21.58;;;10.25;;
64375;SDS011;50700;55.416;12.952;2023-02-28T03:29:56;20.63;;;10.52;;
64375;SDS011;50700;55.416;12.952;2023-02-28T03:32:26;22.73;;;9.70;;
64375;SDS011;50700;55.416;12.952;2023-02-28T03:35:02;19.80;;;9.68;;
64375;SDS011;50700;55.416;12.952;2023-02-28T03:37:32;23.02;;;9.77;;
64375;SDS011;50700;55.416;12.952;2023-02-28T03:40:20;20.55;;;8.70;;
64375;SDS011;50700;55.416;12.952;2023-02-28T03:42:49;27.65;;;8.30;;
64375;SDS011;50700;55.416;12.952;2023-02-28T03:45:18;24.73;;;10.00;;
64375;SDS011;50700;55.416;12.952;2023-02-28T03:47:56;22.73;;;8.88;;
64375;SDS011;50700;55.416;12.952;2023-02-28T03:50:25;24.02;;;9.38;;
64375;SDS011;50700;55.416;12.952;2023-02-28T03:52:56;28.40;;;10.88;;
64375;SDS011;50700;55.416;12.952;2023-02-28T03:55:26;26.85;;;8.70;;
64375;SDS011;50700;55.416;12.952;2023-02-28T03:58:15;21.48;;;9.05;;
64375;SDS011;50700;55.416;12.952;2023-02-28T04:00:45;25.35;;;9.57;;
64375;SDS011;50700;55.416;12.952;2023-02-28T04:03:13;42.22;;;10.32;;
64375;SDS011;50700;55.416;12.952;2023-02-28T04:05:50;23.77;;;9.50;;
64375;SDS011;50700;55.416;12.952;2023-02-28T04:08:16;22.65;;;9.43;;
64375;SDS011;50700;55.416;12.952;2023-02-28T04:10:43;22.05;;;9.18;;
64375;SDS011;50700;55.416;12.952;2023-02-28T04:13:11;25.58;;;9.93;;
64375;SDS011;50700;55.416;12.952;2023-02-28T04:15:37;30.92;;;10.27;;
64375;SDS011;50700;55.416;12.952;2023-02-28T04:18:03;27.73;;;10.50;;
64375;SDS011;50700;55.416;12.952;2023-02-28T04:20:29;20.83;;;8.73;;
64375;SDS011;50700;55.416;12.952;2023-02-28T04:22:55;25.80;;;9.80;;
64375;SDS011;50700;55.416;12.952;2023-02-28T04:25:22;29.50;;;8.80;;
64375;SDS011;50700;55.416;12.952;2023-02-28T04:27:48;38.30;;;11.00;;
64375;SDS011;50700;55.416;12.952;2023-02-28T04:30:14;27.48;;;9.25;;
64375;SDS011;50700;55.416;12.952;2023-02-28T04:32:40;22.73;;;9.70;;
64375;SDS011;50700;55.416;12.952;2023-02-28T04:35:06;28.85;;;10.10;;
64375;SDS011;50700;55.416;12.952;2023-02-28T04:37:33;24.00;;;9.23;;
64375;SDS011;50700;55.416;12.952;2023-02-28T04:40:02;22.40;;;7.40;;
64375;SDS011;50700;55.416;12.952;2023-02-28T04:42:28;23.15;;;7.18;;
64375;SDS011;50700;55.416;12.952;2023-02-28T04:45:01;18.50;;;7.93;;
64375;SDS011;50700;55.416;12.952;2023-02-28T04:47:28;26.98;;;9.95;;
64375;SDS011;50700;55.416;12.952;2023-02-28T04:49:54;29.23;;;9.05;;
64375;SDS011;50700;55.416;12.952;2023-02-28T04:52:20;24.27;;;9.73;;
64375;SDS011;50700;55.416;12.952;2023-02-28T04:54:46;22.88;;;8.35;;
64375;SDS011;50700;55.416;12.952;2023-02-28T04:57:13;25.38;;;8.05;;
64375;SDS011;50700;55.416;12.952;2023-02-28T04:59:39;19.15;;;8.27;;
64375;SDS011;50700;55.416;12.952;2023-02-28T05:02:05;23.90;;;8.45;;
64375;SDS011;50700;55.416;12.952;2023-02-28T05:04:34;23.27;;;8.88;;
64375;SDS011;50700;55.416;12.952;2023-02-28T05:07:01;33.88;;;8.95;;
64375;SDS011;50700;55.416;12.952;2023-02-28T05:09:28;53.63;;;9.68;;
64375;SDS011;50700;55.416;12.952;2023-02-28T05:11:54;44.65;;;10.23;;
64375;SDS011;50700;55.416;12.952;2023-02-28T05:14:22;33.67;;;9.98;;
64375;SDS011;50700;55.416;12.952;2023-02-28T05:16:48;34.45;;;8.88;;
64375;SDS011;50700;55.416;12.952;2023-02-28T05:19:14;34.38;;;8.65;;
64375;SDS011;50700;55.416;12.952;2023-02-28T05:21:41;34.90;;;8.90;;
64375;SDS011;50700;55.416;12.952;2023-02-28T05:24:14;22.42;;;7.97;;
64375;SDS011;50700;55.416;12.952;2023-02-28T05:26:46;20.15;;;7.32;;
64375;SDS011;50700;55.416;12.952;2023-02-28T05:29:12;18.35;;;7.57;;
64375;SDS011;50700;55.416;12.952;2023-02-28T05:31:38;19.85;;;8.13;;
64375;SDS011;50700;55.416;12.952;2023-02-28T05:34:05;22.85;;;8.55;;
64375;SDS011;50700;55.416;12.952;2023-02-28T05:36:31;17.88;;;7.03;;
64375;SDS011;50700;55.416;12.952;2023-02-28T05:38:57;18.33;;;6.63;;
64375;SDS011;50700;55.416;12.952;2023-02-28T05:41:23;23.60;;;8.18;;
64375;SDS011;50700;55.416;12.952;2023-02-28T05:43:51;17.35;;;7.40;;
64375;SDS011;50700;55.416;12.952;2023-02-28T05:46:17;24.27;;;7.60;;
64375;SDS011;50700;55.416;12.952;2023-02-28T05:48:45;24.80;;;8.77;;
64375;SDS011;50700;55.416;12.952;2023-02-28T05:51:12;23.55;;;7.55;;
64375;SDS011;50700;55.416;12.952;2023-02-28T05:53:38;21.80;;;7.97;;
64375;SDS011;50700;55.416;12.952;2023-02-28T05:56:04;20.60;;;8.48;;
64375;SDS011;50700;55.416;12.952;2023-02-28T05:58:31;22.65;;;7.68;;
64375;SDS011;50700;55.416;12.952;2023-02-28T06:01:00;14.43;;;7.32;;
64375;SDS011;50700;55.416;12.952;2023-02-28T06:03:27;17.17;;;7.47;;
64375;SDS011;50700;55.416;12.952;2023-02-28T06:05:53;19.38;;;7.43;;
64375;SDS011;50700;55.416;12.952;2023-02-28T06:08:19;20.38;;;6.97;;
64375;SDS011;50700;55.416;12.952;2023-02-28T06:10:45;16.25;;;7.32;;
64375;SDS011;50700;55.416;12.952;2023-02-28T06:13:12;27.20;;;7.93;;
64375;SDS011;50700;55.416;12.952;2023-02-28T06:15:38;18.73;;;7.13;;
64375;SDS011;50700;55.416;12.952;2023-02-28T06:18:04;21.05;;;7.80;;
64375;SDS011;50700;55.416;12.952;2023-02-28T06:20:30;16.38;;;7.15;;
64375;SDS011;50700;55.416;12.952;2023-02-28T06:22:57;20.52;;;8.95;;
64375;SDS011;50700;55.416;12.952;2023-02-28T06:25:26;21.48;;;8.10;;
64375;SDS011;50700;55.416;12.952;2023-02-28T06:27:53;25.83;;;8.98;;
64375;SDS011;50700;55.416;12.952;2023-02-28T06:30:19;23.45;;;9.55;;
64375;SDS011;50700;55.416;12.952;2023-02-28T06:32:50;20.45;;;8.52;;
64375;SDS011;50700;55.416;12.952;2023-02-28T06:35:17;22.02;;;9.00;;
64375;SDS011;50700;55.416;12.952;2023-02-28T06:37:43;25.50;;;8.23;;
64375;SDS011;50700;55.416;12.952;2023-02-28T06:40:10;23.90;;;7.88;;
64375;SDS011;50700;55.416;12.952;2023-02-28T06:42:38;20.30;;;7.20;;
64375;SDS011;50700;55.416;12.952;2023-02-28T06:45:04;22.95;;;8.27;;
64375;SDS011;50700;55.416;12.952;2023-02-28T06:47:34;22.13;;;9.13;;
64375;SDS011;50700;55.416;12.952;2023-02-28T06:50:01;27.45;;;9.52;;
64375;SDS011;50700;55.416;12.952;2023-02-28T06:52:27;23.65;;;9.52;;
64375;SDS011;50700;55.416;12.952;2023-02-28T06:54:53;22.10;;;8.88;;
64375;SDS011;50700;55.416;12.952;2023-02-28T06:57:28;21.45;;;9.77;;
64375;SDS011;50700;55.416;12.952;2023-02-28T06:59:57;23.33;;;9.88;;
64375;SDS011;50700;55.416;12.952;2023-02-28T07:02:24;21.45;;;8.43;;
64375;SDS011;50700;55.416;12.952;2023-02-28T07:04:50;32.30;;;10.10;;
64375;SDS011;50700;55.416;12.952;2023-02-28T07:07:16;29.67;;;10.38;;
64375;SDS011;50700;55.416;12.952;2023-02-28T07:09:43;28.40;;;9.40;;
64375;SDS011;50700;55.416;12.952;2023-02-28T07:12:09;22.88;;;9.48;;
64375;SDS011;50700;55.416;12.952;2023-02-28T07:14:36;24.05;;;10.88;;
64375;SDS011;50700;55.416;12.952;2023-02-28T07:17:02;29.58;;;10.00;;
64375;SDS011;50700;55.416;12.952;2023-02-28T07:19:29;27.23;;;11.90;;
64375;SDS011;50700;55.416;12.952;2023-02-28T07:21:55;33.50;;;11.85;;
64375;SDS011;50700;55.416;12.952;2023-02-28T07:24:21;31.23;;;11.80;;
64375;SDS011;50700;55.416;12.952;2023-02-28T07:26:50;29.10;;;10.95;;
64375;SDS011;50700;55.416;12.952;2023-02-28T07:29:17;34.08;;;12.45;;
64375;SDS011;50700;55.416;12.952;2023-02-28T07:31:43;43.33;;;13.00;;
64375;SDS011;50700;55.416;12.952;2023-02-28T07:34:09;60.33;;;13.93;;
64375;SDS011;50700;55.416;12.952;2023-02-28T07:36:35;41.33;;;11.65;;
64375;SDS011;50700;55.416;12.952;2023-02-28T07:39:01;158.23;;;15.63;;
64375;SDS011;50700;55.416;12.952;2023-02-28T07:41:29;142.65;;;13.43;;
64375;SDS011;50700;55.416;12.952;2023-02-28T07:43:59;75.18;;;11.63;;
64375;SDS011;50700;55.416;12.952;2023-02-28T07:46:25;179.82;;;15.25;;
64375;SDS011;50700;55.416;12.952;2023-02-28T07:48:51;71.22;;;11.43;;
64375;SDS011;50700;55.416;12.952;2023-02-28T07:51:19;69.25;;;9.95;;
64375;SDS011;50700;55.416;12.952;2023-02-28T07:53:45;46.28;;;10.30;;
64375;SDS011;50700;55.416;12.952;2023-02-28T07:56:12;58.72;;;11.60;;
64375;SDS011;50700;55.416;12.952;2023-02-28T07:58:38;134.82;;;11.80;;
64375;SDS011;50700;55.416;12.952;2023-02-28T08:01:05;128.57;;;13.02;;
64375;SDS011;50700;55.416;12.952;2023-02-28T08:03:31;64.75;;;10.73;;
64375;SDS011;50700;55.416;12.952;2023-02-28T08:05:57;69.22;;;10.30;;
64375;SDS011;50700;55.416;12.952;2023-02-28T08:08:23;40.25;;;10.45;;
64375;SDS011;50700;55.416;12.952;2023-02-28T08:10:53;34.25;;;8.65;;
64375;SDS011;50700;55.416;12.952;2023-02-28T08:13:19;44.10;;;8.88;;
64375;SDS011;50700;55.416;12.952;2023-02-28T08:15:45;28.70;;;8.05;;
64375;SDS011;50700;55.416;12.952;2023-02-28T08:18:12;26.38;;;9.38;;
64375;SDS011;50700;55.416;12.952;2023-02-28T08:20:38;83.22;;;10.00;;
64375;SDS011;50700;55.416;12.952;2023-02-28T08:23:05;20.33;;;8.02;;
64375;SDS011;50700;55.416;12.952;2023-02-28T08:25:31;21.50;;;8.93;;
64375;SDS011;50700;55.416;12.952;2023-02-28T08:27:57;22.70;;;9.35;;
64375;SDS011;50700;55.416;12.952;2023-02-28T08:30:23;25.23;;;9.98;;
64375;SDS011;50700;55.416;12.952;2023-02-28T08:32:49;23.52;;;9.02;;
64375;SDS011;50700;55.416;12.952;2023-02-28T08:35:16;45.05;;;9.38;;
64375;SDS011;50700;55.416;12.952;2023-02-28T08:37:42;73.80;;;10.48;;
64375;SDS011;50700;55.416;12.952;2023-02-28T08:40:08;22.85;;;7.93;;
64375;SDS011;50700;55.416;12.952;2023-02-28T08:42:35;29.60;;;7.72;;
64375;SDS011;50700;55.416;12.952;2023-02-28T08:45:01;29.38;;;9.57;;
64375;SDS011;50700;55.416;12.952;2023-02-28T08:47:27;44.03;;;8.73;;
64375;SDS011;50700;55.416;12.952;2023-02-28T08:49:54;44.20;;;9.70;;
64375;SDS011;50700;55.416;12.952;2023-02-28T08:52:20;38.03;;;9.98;;
64375;SDS011;50700;55.416;12.952;2023-02-28T08:54:46;58.22;;;10.32;;
64375;SDS011;50700;55.416;12.952;2023-02-28T08:57:12;65.68;;;10.35;;
64375;SDS011;50700;55.416;12.952;2023-02-28T08:59:38;32.13;;;9.93;;
64375;SDS011;50700;55.416;12.952;2023-02-28T09:02:04;51.70;;;10.10;;
64375;SDS011;50700;55.416;12.952;2023-02-28T09:04:31;41.10;;;9.63;;
64375;SDS011;50700;55.416;12.952;2023-02-28T09:06:57;27.95;;;10.52;;
64375;SDS011;50700;55.416;12.952;2023-02-28T09:09:23;33.08;;;10.32;;
64375;SDS011;50700;55.416;12.952;2023-02-28T09:11:49;34.75;;;11.90;;
64375;SDS011;50700;55.416;12.952;2023-02-28T09:14:16;34.38;;;10.50;;
64375;SDS011;50700;55.416;12.952;2023-02-28T09:16:42;30.55;;;10.57;;
64375;SDS011;50700;55.416;12.952;2023-02-28T09:19:10;34.60;;;11.60;;
64375;SDS011;50700;55.416;12.952;2023-02-28T09:21:37;29.08;;;11.27;;
64375;SDS011;50700;55.416;12.952;2023-02-28T09:24:03;26.65;;;9.43;;
64375;SDS011;50700;55.416;12.952;2023-02-28T09:26:29;28.13;;;10.10;;
64375;SDS011;50700;55.416;12.952;2023-02-28T09:28:56;32.75;;;11.45;;
64375;SDS011;50700;55.416;12.952;2023-02-28T09:31:25;28.92;;;10.77;;
64375;SDS011;50700;55.416;12.952;2023-02-28T09:33:52;27.52;;;10.57;;
64375;SDS011;50700;55.416;12.952;2023-02-28T09:36:18;26.77;;;10.15;;
64375;SDS011;50700;55.416;12.952;2023-02-28T09:38:45;26.52;;;9.65;;
64375;SDS011;50700;55.416;12.952;2023-02-28T09:41:21;27.70;;;10.85;;
64375;SDS011;50700;55.416;12.952;2023-02-28T09:43:59;24.58;;;10.20;;
64375;SDS011;50700;55.416;12.952;2023-02-28T09:46:30;26.35;;;10.13;;
64375;SDS011;50700;55.416;12.952;2023-02-28T09:48:57;28.58;;;11.00;;
64375;SDS011;50700;55.416;12.952;2023-02-28T09:53:55;29.00;;;11.32;;
64375;SDS011;50700;55.416;12.952;2023-02-28T09:56:22;30.20;;;10.93;;
64375;SDS011;50700;55.416;12.952;2023-02-28T10:06:29;26.65;;;11.90;;
64375;SDS011;50700;55.416;12.952;2023-02-28T10:08:58;26.02;;;11.88;;
64375;SDS011;50700;55.416;12.952;2023-02-28T10:11:26;24.50;;;12.02;;
64375;SDS011;50700;55.416;12.952;2023-02-28T10:16:27;28.65;;;10.55;;
64375;SDS011;50700;55.416;12.952;2023-02-28T10:21:38;25.52;;;10.57;;
64375;SDS011;50700;55.416;12.952;2023-02-28T10:24:11;23.80;;;10.20;;
64375;SDS011;50700;55.416;12.952;2023-02-28T10:26:43;28.73;;;10.77;;
64375;SDS011;50700;55.416;12.952;2023-02-28T10:29:11;26.98;;;11.45;;
64375;SDS011;50700;55.416;12.952;2023-02-28T10:31:37;29.80;;;11.27;;
64375;SDS011;50700;55.416;12.952;2023-02-28T10:34:04;26.52;;;11.70;;
64375;SDS011;50700;55.416;12.952;2023-02-28T10:36:31;26.73;;;10.75;;
64375;SDS011;50700;55.416;12.952;2023-02-28T10:38:58;24.77;;;11.10;;
64375;SDS011;50700;55.416;12.952;2023-02-28T10:41:31;25.98;;;10.88;;
64375;SDS011;50700;55.416;12.952;2023-02-28T10:46:46;26.02;;;10.10;;
64375;SDS011;50700;55.416;12.952;2023-02-28T10:49:14;23.70;;;10.35;;
64375;SDS011;50700;55.416;12.952;2023-02-28T10:51:41;25.98;;;11.20;;
64375;SDS011;50700;55.416;12.952;2023-02-28T10:54:20;30.38;;;12.40;;
64375;SDS011;50700;55.416;12.952;2023-02-28T10:57:08;25.33;;;10.38;;
64375;SDS011;50700;55.416;12.952;2023-02-28T10:59:35;21.85;;;11.02;;
64375;SDS011;50700;55.416;12.952;2023-02-28T11:02:01;27.50;;;12.30;;
64375;SDS011;50700;55.416;12.952;2023-02-28T11:09:41;28.30;;;11.75;;
64375;SDS011;50700;55.416;12.952;2023-02-28T11:15:00;17.92;;;8.75;;
64375;SDS011;50700;55.416;12.952;2023-02-28T11:17:28;20.42;;;9.10;;
64375;SDS011;50700;55.416;12.952;2023-02-28T11:19:57;20.60;;;10.68;;
64375;SDS011;50700;55.416;12.952;2023-02-28T11:22:28;22.20;;;9.18;;
64375;SDS011;50700;55.416;12.952;2023-02-28T11:24:56;18.45;;;9.07;;
64375;SDS011;50700;55.416;12.952;2023-02-28T11:29:56;21.85;;;9.88;;
64375;SDS011;50700;55.416;12.952;2023-02-28T11:32:27;22.63;;;9.43;;
64375;SDS011;50700;55.416;12.952;2023-02-28T11:37:32;27.00;;;10.15;;
64375;SDS011;50700;55.416;12.952;2023-02-28T11:39:58;17.58;;;9.00;;
64375;SDS011;50700;55.416;12.952;2023-02-28T11:47:50;21.92;;;9.75;;
64375;SDS011;50700;55.416;12.952;2023-02-28T11:50:27;22.67;;;9.73;;
64375;SDS011;50700;55.416;12.952;2023-02-28T11:53:00;19.92;;;8.82;;
64375;SDS011;50700;55.416;12.952;2023-02-28T11:55:27;20.88;;;9.70;;
64375;SDS011;50700;55.416;12.952;2023-02-28T12:01:03;21.67;;;9.13;;
64375;SDS011;50700;55.416;12.952;2023-02-28T12:06:13;18.20;;;9.00;;
64375;SDS011;50700;55.416;12.952;2023-02-28T12:08:46;25.60;;;9.52;;
64375;SDS011;50700;55.416;12.952;2023-02-28T12:13:52;21.52;;;10.45;;
64375;SDS011;50700;55.416;12.952;2023-02-28T12:16:30;23.83;;;10.27;;
64375;SDS011;50700;55.416;12.952;2023-02-28T12:19:07;25.33;;;9.52;;
64375;SDS011;50700;55.416;12.952;2023-02-28T12:26:36;22.00;;;9.15;;
64375;SDS011;50700;55.416;12.952;2023-02-28T12:29:12;22.63;;;10.23;;
64375;SDS011;50700;55.416;12.952;2023-02-28T12:31:41;18.15;;;8.38;;
64375;SDS011;50700;55.416;12.952;2023-02-28T12:34:11;21.23;;;9.60;;
64375;SDS011;50700;55.416;12.952;2023-02-28T12:36:39;20.73;;;8.00;;
64375;SDS011;50700;55.416;12.952;2023-02-28T12:39:14;17.77;;;9.30;;
64375;SDS011;50700;55.416;12.952;2023-02-28T12:41:42;20.80;;;9.30;;
64375;SDS011;50700;55.416;12.952;2023-02-28T12:46:43;18.48;;;8.90;;
64375;SDS011;50700;55.416;12.952;2023-02-28T12:49:12;17.00;;;8.70;;
64375;SDS011;50700;55.416;12.952;2023-02-28T12:51:39;21.38;;;9.48;;
64375;SDS011;50700;55.416;12.952;2023-02-28T12:56:47;18.15;;;8.23;;
64375;SDS011;50700;55.416;12.952;2023-02-28T12:59:25;16.52;;;8.70;;
64375;SDS011;50700;55.416;12.952;2023-02-28T13:09:33;21.20;;;7.93;;
64375;SDS011;50700;55.416;12.952;2023-02-28T13:12:00;18.10;;;8.18;;
64375;SDS011;50700;55.416;12.952;2023-02-28T13:16:59;15.25;;;7.65;;
64375;SDS011;50700;55.416;12.952;2023-02-28T13:19:31;15.73;;;6.90;;
64375;SDS011;50700;55.416;12.952;2023-02-28T13:21:59;11.30;;;6.03;;
64375;SDS011;50700;55.416;12.952;2023-02-28T13:24:44;11.25;;;6.38;;
64375;SDS011;50700;55.416;12.952;2023-02-28T13:27:20;11.05;;;6.05;;
64375;SDS011;50700;55.416;12.952;2023-02-28T13:29:51;11.80;;;5.68;;
64375;SDS011;50700;55.416;12.952;2023-02-28T13:32:34;10.82;;;5.43;;
64375;SDS011;50700;55.416;12.952;2023-02-28T13:37:41;13.10;;;6.20;;
64375;SDS011;50700;55.416;12.952;2023-02-28T13:42:46;12.60;;;6.22;;
64375;SDS011;50700;55.416;12.952;2023-02-28T13:45:28;11.23;;;6.15;;
64375;SDS011;50700;55.416;12.952;2023-02-28T13:50:27;11.07;;;6.30;;
64375;SDS011;50700;55.416;12.952;2023-02-28T13:53:02;14.57;;;6.50;;
64375;SDS011;50700;55.416;12.952;2023-02-28T13:55:33;17.10;;;6.93;;
64375;SDS011;50700;55.416;12.952;2023-02-28T13:58:22;15.07;;;7.23;;
64375;SDS011;50700;55.416;12.952;2023-02-28T14:05:47;14.45;;;7.55;;
64375;SDS011;50700;55.416;12.952;2023-02-28T14:08:15;16.90;;;9.13;;
64375;SDS011;50700;55.416;12.952;2023-02-28T14:10:44;15.10;;;8.07;;
64375;SDS011;50700;55.416;12.952;2023-02-28T14:15:57;16.25;;;8.45;;
64375;SDS011;50700;55.416;12.952;2023-02-28T14:18:25;18.65;;;8.43;;
64375;SDS011;50700;55.416;12.952;2023-02-28T14:20:54;15.27;;;7.63;;
64375;SDS011;50700;55.416;12.952;2023-02-28T14:31:07;13.95;;;7.30;;
64375;SDS011;50700;55.416;12.952;2023-02-28T14:36:36;17.10;;;7.78;;
64375;SDS011;50700;55.416;12.952;2023-02-28T14:39:22;15.55;;;8.23;;
64375;SDS011;50700;55.416;12.952;2023-02-28T14:41:48;12.93;;;6.75;;
64375;SDS011;50700;55.416;12.952;2023-02-28T14:46:41;13.85;;;7.43;;
64375;SDS011;50700;55.416;12.952;2023-02-28T14:49:13;14.93;;;7.00;;
64375;SDS011;50700;55.416;12.952;2023-02-28T14:51:41;15.52;;;7.38;;
64375;SDS011;50700;55.416;12.952;2023-02-28T14:54:12;13.00;;;6.25;;
64375;SDS011;50700;55.416;12.952;2023-02-28T14:56:39;14.95;;;6.93;;
64375;SDS011;50700;55.416;12.952;2023-02-28T14:59:20;15.95;;;6.72;;
64375;SDS011;50700;55.416;12.952;2023-02-28T15:01:48;19.08;;;6.40;;
64375;SDS011;50700;55.416;12.952;2023-02-28T15:04:35;15.60;;;7.20;;
64375;SDS011;50700;55.416;12.952;2023-02-28T15:07:20;14.10;;;5.75;;
64375;SDS011;50700;55.416;12.952;2023-02-28T15:12:35;13.10;;;6.57;;
64375;SDS011;50700;55.416;12.952;2023-02-28T15:15:01;12.85;;;6.25;;
64375;SDS011;50700;55.416;12.952;2023-02-28T15:17:28;11.55;;;6.07;;
64375;SDS011;50700;55.416;12.952;2023-02-28T15:19:54;10.68;;;5.13;;
64375;SDS011;50700;55.416;12.952;2023-02-28T15:22:27;15.05;;;7.03;;
64375;SDS011;50700;55.416;12.952;2023-02-28T15:24:54;12.77;;;5.90;;
64375;SDS011;50700;55.416;12.952;2023-02-28T15:27:25;13.43;;;5.90;;
64375;SDS011;50700;55.416;12.952;2023-02-28T15:29:58;9.90;;;5.75;;
64375;SDS011;50700;55.416;12.952;2023-02-28T15:32:26;16.50;;;6.63;;
64375;SDS011;50700;55.416;12.952;2023-02-28T15:34:53;15.68;;;5.95;;
64375;SDS011;50700;55.416;12.952;2023-02-28T15:37:27;14.98;;;6.97;;
64375;SDS011;50700;55.416;12.952;2023-02-28T15:39:56;13.05;;;5.88;;
64375;SDS011;50700;55.416;12.952;2023-02-28T15:42:23;10.73;;;6.15;;
64375;SDS011;50700;55.416;12.952;2023-02-28T15:44:53;11.80;;;6.32;;
64375;SDS011;50700;55.416;12.952;2023-02-28T15:49:47;13.02;;;6.00;;
64375;SDS011;50700;55.416;12.952;2023-02-28T15:52:22;11.13;;;5.75;;
64375;SDS011;50700;55.416;12.952;2023-02-28T15:54:53;10.73;;;5.10;;
64375;SDS011;50700;55.416;12.952;2023-02-28T15:57:24;11.77;;;5.70;;
64375;SDS011;50700;55.416;12.952;2023-02-28T15:59:52;12.80;;;5.25;;
64375;SDS011;50700;55.416;12.952;2023-02-28T16:02:21;12.27;;;5.55;;
64375;SDS011;50700;55.416;12.952;2023-02-28T16:05:01;11.90;;;5.60;;
64375;SDS011;50700;55.416;12.952;2023-02-28T16:07:28;13.23;;;6.00;;
64375;SDS011;50700;55.416;12.952;2023-02-28T16:09:54;11.00;;;5.90;;
64375;SDS011;50700;55.416;12.952;2023-02-28T16:12:22;11.25;;;5.53;;
64375;SDS011;50700;55.416;12.952;2023-02-28T16:14:52;13.23;;;6.07;;
64375;SDS011;50700;55.416;12.952;2023-02-28T16:17:22;10.52;;;5.50;;
64375;SDS011;50700;55.416;12.952;2023-02-28T16:19:49;16.63;;;6.50;;
64375;SDS011;50700;55.416;12.952;2023-02-28T16:22:15;16.67;;;6.50;;
64375;SDS011;50700;55.416;12.952;2023-02-28T16:24:41;12.50;;;5.88;;
64375;SDS011;50700;55.416;12.952;2023-02-28T16:27:10;14.60;;;5.88;;
64375;SDS011;50700;55.416;12.952;2023-02-28T16:29:41;13.30;;;5.82;;
64375;SDS011;50700;55.416;12.952;2023-02-28T16:32:07;14.60;;;5.70;;